createdAt,value
2019-02-05T00:01:53.008Z,8.83
2019-02-05T00:04:24.980Z,11.80
2019-02-05T00:06:54.616Z,8.83
2019-02-05T00:09:24.193Z,8.17
2019-02-05T00:11:53.784Z,9.30
2019-02-05T00:14:23.798Z,9.77
2019-02-05T00:17:03.194Z,10.07
2019-02-05T00:19:48.441Z,10.30
2019-02-05T00:22:22.566Z,9.10
2019-02-05T00:24:52.976Z,10.27
2019-02-05T00:28:21.533Z,10.40
2019-02-05T00:31:08.462Z,9.93
2019-02-05T00:34:03.350Z,10.33
2019-02-05T00:36:51.607Z,11.67
2019-02-05T00:40:00.210Z,10.37
2019-02-05T00:42:54.538Z,12.03
2019-02-05T00:45:50.076Z,10.30
2019-02-05T00:48:24.542Z,13.80
2019-02-05T00:51:04.702Z,14.67
2019-02-05T00:53:36.259Z,12.87
2019-02-05T00:56:17.353Z,11.97
2019-02-05T00:58:41.251Z,12.30
2019-02-05T01:01:11.198Z,12.83
2019-02-05T01:03:41.008Z,13.17
2019-02-05T01:06:11.062Z,14.17
2019-02-05T01:08:40.914Z,14.70
2019-02-05T01:11:10.558Z,11.93
2019-02-05T01:13:40.197Z,13.07
2019-02-05T01:16:10.132Z,12.33
2019-02-05T01:18:40.012Z,14.60
2019-02-05T01:21:09.780Z,12.23
2019-02-05T01:23:39.316Z,14.77
2019-02-05T01:26:08.779Z,14.07
2019-02-05T01:28:38.360Z,14.13
2019-02-05T01:31:07.895Z,12.57
2019-02-05T01:33:37.486Z,13.53
2019-02-05T01:36:07.137Z,13.77
2019-02-05T01:38:36.741Z,13.20
2019-02-05T01:41:06.223Z,15.83
2019-02-05T01:43:35.928Z,13.27
2019-02-05T01:46:05.851Z,14.77
2019-02-05T01:48:35.397Z,14.20
2019-02-05T01:51:05.014Z,11.27
2019-02-05T01:53:34.610Z,12.37
2019-02-05T01:56:04.439Z,15.57
2019-02-05T01:58:33.979Z,15.27
2019-02-05T02:01:06.131Z,15.63
2019-02-05T02:03:35.707Z,12.93
2019-02-05T02:06:05.378Z,13.20
2019-02-05T02:08:34.946Z,15.17
2019-02-05T02:11:04.576Z,14.27
2019-02-05T02:13:34.264Z,13.87
2019-02-05T02:16:04.264Z,15.97
2019-02-05T02:18:33.799Z,15.10
2019-02-05T02:21:03.371Z,13.73
2019-02-05T02:23:32.987Z,15.63
2019-02-05T02:26:02.559Z,16.00
2019-02-05T02:28:32.033Z,15.57
2019-02-05T02:31:01.998Z,14.70
2019-02-05T02:33:31.558Z,17.30
2019-02-05T02:36:10.145Z,17.30
2019-02-05T02:38:39.858Z,16.50
2019-02-05T02:41:09.477Z,18.33
2019-02-05T02:43:39.310Z,20.87
2019-02-05T02:46:09.000Z,18.73
2019-02-05T02:48:38.546Z,16.10
2019-02-05T02:51:08.147Z,18.30
2019-02-05T02:53:37.911Z,22.20
2019-02-05T02:56:07.532Z,17.30
2019-02-05T02:58:37.182Z,20.87
2019-02-05T03:01:06.900Z,21.80
2019-02-05T03:03:36.494Z,20.57
2019-02-05T03:06:06.207Z,20.83
2019-02-05T03:08:35.855Z,22.00
2019-02-05T03:11:05.972Z,22.00
2019-02-05T03:13:35.768Z,20.93
2019-02-05T03:16:05.564Z,22.63
2019-02-05T03:18:35.181Z,19.63
2019-02-05T03:21:04.734Z,24.67
2019-02-05T03:23:34.257Z,18.40
2019-02-05T03:26:03.848Z,23.40
2019-02-05T03:28:33.338Z,22.07
2019-02-05T03:31:03.257Z,23.20
2019-02-05T03:33:32.798Z,19.47
2019-02-05T03:36:02.302Z,20.93
2019-02-05T03:38:31.862Z,23.40
2019-02-05T03:41:05.678Z,21.30
2019-02-05T03:43:36.097Z,19.27
2019-02-05T03:46:14.206Z,25.47
2019-02-05T03:48:45.715Z,24.27
2019-02-05T03:51:46.872Z,22.23
2019-02-05T03:54:55.561Z,21.03
2019-02-05T03:58:05.290Z,22.57
2019-02-05T04:00:52.908Z,22.00
2019-02-05T04:04:22.112Z,20.90
2019-02-05T04:07:21.776Z,21.57
2019-02-05T04:10:19.775Z,20.80
2019-02-05T04:13:35.128Z,26.27
2019-02-05T04:16:38.119Z,22.13
2019-02-05T04:19:52.085Z,26.53
2019-02-05T04:22:57.537Z,22.90
2019-02-05T04:26:13.114Z,20.73
2019-02-05T04:29:29.053Z,27.40
2019-02-05T04:32:45.406Z,26.30
2019-02-05T04:36:04.755Z,20.63
2019-02-05T04:39:17.127Z,23.63
2019-02-05T04:42:29.091Z,19.77
2019-02-05T04:45:34.076Z,23.33
2019-02-05T04:48:38.248Z,22.43
2019-02-05T04:52:03.592Z,21.83
2019-02-05T04:55:04.458Z,27.77
2019-02-05T04:58:36.581Z,27.43
2019-02-05T05:01:38.560Z,21.27
2019-02-05T05:04:30.451Z,30.20
2019-02-05T05:07:43.874Z,23.33
2019-02-05T05:10:13.450Z,27.53
2019-02-05T05:12:44.138Z,27.43
2019-02-05T05:15:14.399Z,31.93
2019-02-05T05:17:44.095Z,25.73
2019-02-05T05:20:14.065Z,28.13
2019-02-05T05:22:44.617Z,25.37
2019-02-05T05:25:14.210Z,21.97
2019-02-05T05:27:44.122Z,24.03
2019-02-05T05:30:17.136Z,26.17
2019-02-05T05:33:17.091Z,30.67
2019-02-05T05:35:44.230Z,27.83
2019-02-05T05:38:10.355Z,25.13
2019-02-05T05:40:39.866Z,26.80
2019-02-05T05:43:09.405Z,25.80
2019-02-05T05:45:38.829Z,22.50
2019-02-05T05:48:08.403Z,21.63
2019-02-05T05:50:38.021Z,24.57
2019-02-05T05:53:07.591Z,26.63
2019-02-05T05:55:37.087Z,30.17
2019-02-05T05:58:06.622Z,32.80
2019-02-05T06:00:36.128Z,34.13
2019-02-05T06:03:05.707Z,33.07
2019-02-05T06:05:36.362Z,26.70
2019-02-05T06:08:05.980Z,27.07
2019-02-05T06:10:35.580Z,39.67
2019-02-05T06:13:05.110Z,31.00
2019-02-05T06:15:36.035Z,32.70
2019-02-05T06:18:05.637Z,32.57
2019-02-05T06:20:35.483Z,32.40
2019-02-05T06:23:05.304Z,30.27
2019-02-05T06:25:34.913Z,23.47
2019-02-05T06:28:04.819Z,29.83
2019-02-05T06:30:34.400Z,30.37
2019-02-05T06:33:04.136Z,29.47
2019-02-05T06:35:34.126Z,31.83
2019-02-05T06:38:03.734Z,36.00
2019-02-05T06:40:33.426Z,35.07
2019-02-05T06:43:03.069Z,30.37
2019-02-05T06:45:32.863Z,28.20
2019-02-05T06:48:02.516Z,32.73
2019-02-05T06:50:32.413Z,31.73
2019-02-05T06:53:02.005Z,30.17
2019-02-05T06:55:31.659Z,33.33
2019-02-05T06:58:01.318Z,33.07
2019-02-05T07:00:31.074Z,31.13
2019-02-05T07:03:00.633Z,30.30
2019-02-05T07:05:30.221Z,29.23
2019-02-05T07:07:59.704Z,29.23
2019-02-05T07:10:29.201Z,33.03
2019-02-05T07:12:58.729Z,32.23
2019-02-05T07:15:28.208Z,34.53
2019-02-05T07:17:57.655Z,26.13
2019-02-05T07:20:27.145Z,28.93
2019-02-05T07:22:58.499Z,31.17
2019-02-05T07:25:32.104Z,32.07
2019-02-05T07:28:03.171Z,31.47
2019-02-05T07:30:34.346Z,33.03
2019-02-05T07:33:03.800Z,32.17
2019-02-05T07:35:33.337Z,21.60
2019-02-05T07:38:02.810Z,32.87
2019-02-05T07:40:32.350Z,34.27
2019-02-05T07:43:01.849Z,27.07
2019-02-05T07:45:31.393Z,32.77
2019-02-05T07:48:00.942Z,30.30
2019-02-05T07:50:30.379Z,34.43
2019-02-05T07:52:59.885Z,36.20
2019-02-05T07:55:29.643Z,32.97
2019-02-05T07:57:59.063Z,32.03
2019-02-05T08:00:29.044Z,32.87
2019-02-05T08:02:58.672Z,26.60
2019-02-05T08:05:32.493Z,29.17
2019-02-05T08:08:02.260Z,29.37
2019-02-05T08:10:31.988Z,25.20
2019-02-05T08:13:01.447Z,34.90
2019-02-05T08:15:32.508Z,34.60
2019-02-05T08:18:02.030Z,34.93
2019-02-05T08:20:31.493Z,28.93
2019-02-05T08:23:00.916Z,32.93
2019-02-05T08:25:30.339Z,33.67
2019-02-05T08:28:00.227Z,27.00
2019-02-05T08:30:32.190Z,25.20
2019-02-05T08:33:01.649Z,30.27
2019-02-05T08:35:31.127Z,28.73
2019-02-05T08:38:00.570Z,32.57
2019-02-05T08:40:29.967Z,28.43
2019-02-05T08:42:59.475Z,37.70
2019-02-05T08:45:30.427Z,40.97
2019-02-05T08:47:59.942Z,39.47
2019-02-05T08:50:29.643Z,29.30
2019-02-05T08:52:59.117Z,29.50
2019-02-05T08:55:30.749Z,24.77
2019-02-05T08:58:02.087Z,35.70
2019-02-05T09:00:33.595Z,38.10
2019-02-05T09:03:03.191Z,34.27
2019-02-05T09:05:32.677Z,36.53
2019-02-05T09:08:02.128Z,26.67
2019-02-05T09:10:33.383Z,29.77
2019-02-05T09:13:02.899Z,36.20
2019-02-05T09:15:32.625Z,32.90
2019-02-05T09:18:01.975Z,35.40
2019-02-05T09:20:31.345Z,31.43
2019-02-05T09:23:00.933Z,32.77
2019-02-05T09:25:30.484Z,31.33
2019-02-05T09:27:59.924Z,30.93
2019-02-05T09:30:31.264Z,33.93
2019-02-05T09:33:02.609Z,31.40
2019-02-05T09:35:32.083Z,35.90
2019-02-05T09:38:01.538Z,40.60
2019-02-05T09:40:32.024Z,41.80
2019-02-05T09:43:01.456Z,39.33
2019-02-05T09:45:31.651Z,38.97
2019-02-05T09:48:01.504Z,44.57
2019-02-05T09:50:43.492Z,40.67
2019-02-05T09:53:02.092Z,36.03
2019-02-05T09:55:31.532Z,31.83
2019-02-05T09:58:01.019Z,35.50
2019-02-05T10:00:32.925Z,40.60
2019-02-05T10:03:02.340Z,39.53
2019-02-05T10:05:32.673Z,42.33
2019-02-05T10:08:02.094Z,40.83
2019-02-05T10:10:31.673Z,36.47
2019-02-05T10:13:01.194Z,40.33
2019-02-05T10:15:32.900Z,40.07
2019-02-05T10:18:02.916Z,39.00
2019-02-05T10:20:32.496Z,29.43
2019-02-05T10:23:04.764Z,35.93
2019-02-05T10:25:34.226Z,35.70
2019-02-05T10:28:03.647Z,34.77
2019-02-05T10:30:35.576Z,34.00
2019-02-05T10:33:06.066Z,35.93
2019-02-05T10:35:35.531Z,32.47
2019-02-05T10:38:05.288Z,28.27
2019-02-05T10:40:34.871Z,29.83
2019-02-05T10:43:05.809Z,32.30
2019-02-05T10:45:35.423Z,32.17
2019-02-05T10:48:06.984Z,35.40
2019-02-05T10:50:36.506Z,32.73
2019-02-05T10:53:06.217Z,35.17
2019-02-05T10:55:35.663Z,29.20
2019-02-05T10:58:06.022Z,24.17
2019-02-05T11:00:35.809Z,33.77
2019-02-05T11:03:07.248Z,30.13
2019-02-05T11:05:37.006Z,27.43
2019-02-05T11:08:06.962Z,28.67
2019-02-05T11:10:36.670Z,27.83
2019-02-05T11:13:07.130Z,26.67
2019-02-05T11:15:36.664Z,26.47
2019-02-05T11:18:08.724Z,26.27
2019-02-05T11:20:38.338Z,23.60
2019-02-05T11:23:08.079Z,30.53
2019-02-05T11:25:37.599Z,27.00
2019-02-05T11:28:07.045Z,35.73
2019-02-05T11:30:42.147Z,31.90
2019-02-05T11:33:12.059Z,26.27
2019-02-05T11:35:41.555Z,27.80
2019-02-05T11:38:12.160Z,27.33
2019-02-05T11:40:42.125Z,29.97
2019-02-05T11:43:11.698Z,23.90
2019-02-05T11:45:41.352Z,29.33
2019-02-05T11:48:13.945Z,25.17
2019-02-05T11:50:43.413Z,23.00
2019-02-05T11:53:12.869Z,28.10
2019-02-05T11:55:42.218Z,23.20
2019-02-05T11:58:11.925Z,27.37
2019-02-05T12:00:57.898Z,23.60
2019-02-05T12:03:27.300Z,28.20
2019-02-05T12:05:56.804Z,27.90
2019-02-05T12:08:26.189Z,23.23
2019-02-05T12:10:55.601Z,27.43
2019-02-05T12:13:25.091Z,26.07
2019-02-05T12:15:54.807Z,27.50
2019-02-05T12:18:24.800Z,22.93
2019-02-05T12:20:54.236Z,27.10
2019-02-05T12:23:23.677Z,25.23
2019-02-05T12:25:53.141Z,22.53
2019-02-05T12:28:25.802Z,29.57
2019-02-05T12:30:55.226Z,23.77
2019-02-05T12:33:24.559Z,25.47
2019-02-05T12:35:54.042Z,26.80
2019-02-05T12:38:23.440Z,24.37
2019-02-05T12:40:52.777Z,23.90
2019-02-05T12:43:22.212Z,27.57
2019-02-05T12:45:51.515Z,31.53
2019-02-05T12:48:20.986Z,24.70
2019-02-05T12:50:50.407Z,21.97
2019-02-05T12:53:19.858Z,25.07
2019-02-05T12:55:49.243Z,23.90
2019-02-05T12:58:18.571Z,20.27
2019-02-05T13:00:58.293Z,22.80
2019-02-05T13:03:24.248Z,19.40
2019-02-05T13:05:53.863Z,21.70
2019-02-05T13:08:23.204Z,29.40
2019-02-05T13:10:53.464Z,21.50
2019-02-05T13:13:22.801Z,28.13
2019-02-05T13:15:52.107Z,23.63
2019-02-05T13:18:21.836Z,21.90
2019-02-05T13:20:51.373Z,23.37
2019-02-05T13:23:20.785Z,22.77
2019-02-05T13:25:50.117Z,20.47
2019-02-05T13:28:19.494Z,23.03
2019-02-05T13:30:48.830Z,24.67
2019-02-05T13:33:18.489Z,23.37
2019-02-05T13:35:47.836Z,28.17
2019-02-05T13:38:17.161Z,19.63
2019-02-05T13:40:46.566Z,27.00
2019-02-05T13:43:15.938Z,22.90
2019-02-05T13:45:46.052Z,24.90
2019-02-05T13:48:15.380Z,25.73
2019-02-05T13:50:44.730Z,20.73
2019-02-05T13:53:14.149Z,18.37
2019-02-05T13:55:46.106Z,23.87
2019-02-05T13:58:15.825Z,21.93
2019-02-05T14:00:47.524Z,30.10
2019-02-05T14:03:17.143Z,26.00
2019-02-05T14:05:46.630Z,22.43
2019-02-05T14:08:16.043Z,29.80
2019-02-05T14:10:45.847Z,23.80
2019-02-05T14:13:15.257Z,25.97
2019-02-05T14:15:45.780Z,28.33
2019-02-05T14:18:15.085Z,31.17
2019-02-05T14:20:44.425Z,25.30
2019-02-05T14:23:13.824Z,21.73
2019-02-05T14:25:43.166Z,23.53
2019-02-05T14:28:12.685Z,22.67
2019-02-05T14:30:50.769Z,21.07
2019-02-05T14:33:20.146Z,27.13
2019-02-05T14:35:49.467Z,26.40
2019-02-05T14:38:18.808Z,27.90
2019-02-05T14:40:48.185Z,22.10
2019-02-05T14:43:17.563Z,23.70
2019-02-05T14:45:46.997Z,23.67
2019-02-05T14:48:16.416Z,22.37
2019-02-05T14:50:46.763Z,22.83
2019-02-05T14:53:21.969Z,21.27
2019-02-05T14:55:51.300Z,23.03
2019-02-05T14:58:22.465Z,25.80
2019-02-05T15:00:51.846Z,34.18
2019-02-05T15:03:21.352Z,25.73
2019-02-05T15:05:50.825Z,26.03
2019-02-05T15:08:20.875Z,24.53
2019-02-05T15:10:50.304Z,22.50
2019-02-05T15:13:19.894Z,25.37
2019-02-05T15:15:49.285Z,28.60
2019-02-05T15:18:20.507Z,27.63
2019-02-05T15:20:50.606Z,26.57
2019-02-05T15:23:20.416Z,25.30
2019-02-05T15:25:49.902Z,30.07
2019-02-05T15:28:19.380Z,22.87
2019-02-05T15:30:48.761Z,30.93
2019-02-05T15:33:41.655Z,28.20
2019-02-05T15:36:31.557Z,29.37
2019-02-05T15:39:00.673Z,24.17
2019-02-05T15:41:30.284Z,26.07
2019-02-05T15:44:00.740Z,29.97
2019-02-05T15:46:30.831Z,27.43
2019-02-05T15:49:00.404Z,34.03
2019-02-05T15:51:29.779Z,30.80
2019-02-05T15:53:59.125Z,23.17
2019-02-05T15:56:28.612Z,30.93
2019-02-05T15:58:58.098Z,28.40
2019-02-05T16:01:27.902Z,26.53
2019-02-05T16:03:57.355Z,28.90
2019-02-05T16:06:26.796Z,27.07
2019-02-05T16:08:56.238Z,27.50
2019-02-05T16:11:27.488Z,26.30
2019-02-05T16:13:56.938Z,32.93
2019-02-05T16:16:26.773Z,32.13
2019-02-05T16:18:56.334Z,27.43
2019-02-05T16:21:25.724Z,23.83
2019-02-05T16:23:58.047Z,22.80
2019-02-05T16:26:26.336Z,28.40
2019-02-05T16:28:55.710Z,26.53
2019-02-05T16:31:27.838Z,29.57
2019-02-05T16:33:56.489Z,26.20
2019-02-05T16:36:26.056Z,26.10
2019-02-05T16:38:55.490Z,22.57
2019-02-05T16:41:24.853Z,32.47
2019-02-05T16:43:54.262Z,36.70
2019-02-05T16:46:23.732Z,44.00
2019-02-05T16:48:53.154Z,85.73
2019-02-05T16:51:22.524Z,54.80
2019-02-05T16:53:51.929Z,34.90
2019-02-05T16:56:21.328Z,26.77
2019-02-05T16:58:50.905Z,32.40
2019-02-05T17:01:20.696Z,26.23
2019-02-05T17:03:50.329Z,31.27
2019-02-05T17:06:20.173Z,29.33
2019-02-05T17:08:49.961Z,32.50
2019-02-05T17:11:19.655Z,40.43
2019-02-05T17:13:49.241Z,29.83
2019-02-05T17:16:18.839Z,35.57
2019-02-05T17:18:48.588Z,28.73
2019-02-05T17:21:18.364Z,27.37
2019-02-05T17:23:48.015Z,31.63
2019-02-05T17:26:17.720Z,34.87
2019-02-05T17:28:47.377Z,35.33
2019-02-05T17:31:16.944Z,31.60
2019-02-05T17:33:46.726Z,30.27
2019-02-05T17:36:16.371Z,29.10
2019-02-05T17:38:46.084Z,29.53
2019-02-05T17:41:15.673Z,33.60
2019-02-05T17:43:45.672Z,30.90
2019-02-05T17:46:20.303Z,32.93
2019-02-05T17:48:51.770Z,31.63
2019-02-05T17:51:21.639Z,31.20
2019-02-05T17:53:51.307Z,30.30
2019-02-05T17:56:21.181Z,30.43
2019-02-05T17:58:50.903Z,32.27
2019-02-05T18:01:21.015Z,32.23
2019-02-05T18:03:50.605Z,32.80
2019-02-05T18:06:20.463Z,31.77
2019-02-05T18:08:50.662Z,29.67
2019-02-05T18:11:20.419Z,30.67
2019-02-05T18:13:50.426Z,34.40
2019-02-05T18:16:21.274Z,29.10
2019-02-05T18:18:51.360Z,34.00
2019-02-05T18:21:21.532Z,35.27
2019-02-05T18:23:51.507Z,38.37
2019-02-05T18:26:21.611Z,41.90
2019-02-05T18:35:44.442Z,44.00
2019-02-05T18:38:16.187Z,35.00
2019-02-05T18:40:46.456Z,37.53
2019-02-05T18:43:16.744Z,51.30
2019-02-05T18:45:46.554Z,45.47
2019-02-05T18:48:26.916Z,49.40
2019-02-05T18:51:02.191Z,54.63
2019-02-05T19:34:42.810Z,43.57
2019-02-05T19:37:12.644Z,44.23
2019-02-05T19:39:42.507Z,47.85
2019-02-05T19:42:12.984Z,44.73
2019-02-05T19:44:48.494Z,41.07
2019-02-05T19:47:26.994Z,41.20
2019-02-05T19:49:59.442Z,40.70
2019-02-05T19:52:30.188Z,50.53
2019-02-05T19:55:00.010Z,38.13
2019-02-05T19:57:29.802Z,37.70
2019-02-05T19:59:59.862Z,39.97
2019-02-05T20:02:29.742Z,39.33
2019-02-05T20:04:59.353Z,39.50
2019-02-05T20:07:29.053Z,38.40
2019-02-05T20:09:58.704Z,37.50
2019-02-05T20:12:31.904Z,40.90
2019-02-05T20:15:01.549Z,41.83
2019-02-05T20:17:31.259Z,39.33
2019-02-05T20:20:00.838Z,36.10
2019-02-05T20:22:30.596Z,34.17
2019-02-05T20:25:00.345Z,36.50
2019-02-05T20:27:30.425Z,39.60
2019-02-05T20:30:08.162Z,37.37
2019-02-05T20:32:37.791Z,46.57
2019-02-05T20:35:07.678Z,43.63
2019-02-05T20:37:40.163Z,34.00
2019-02-05T20:40:13.124Z,45.03
2019-02-05T20:42:42.926Z,38.87
2019-02-05T20:45:12.953Z,37.03
2019-02-05T20:47:42.625Z,46.63
2019-02-05T20:50:14.067Z,43.93
2019-02-05T20:56:24.018Z,40.80
2019-02-05T20:58:53.727Z,50.67
2019-02-05T21:01:23.655Z,38.73
2019-02-05T21:04:01.007Z,48.80
2019-02-05T21:06:36.640Z,47.07
2019-02-05T21:09:16.394Z,51.70
2019-02-05T21:15:38.435Z,50.67
2019-02-05T21:18:17.383Z,42.37
2019-02-05T21:20:45.848Z,48.70
2019-02-05T21:23:15.475Z,48.80
2019-02-05T21:25:45.251Z,47.90
2019-02-05T21:28:14.804Z,49.00
2019-02-05T21:30:44.807Z,48.83
2019-02-05T21:33:14.485Z,53.77
2019-02-05T21:39:22.068Z,45.07
2019-02-05T21:41:51.626Z,47.73
2019-02-05T21:44:21.339Z,41.47
2019-02-05T21:46:50.956Z,43.87
2019-02-05T21:49:20.933Z,44.87
2019-02-05T21:51:51.308Z,39.20
2019-02-05T21:54:20.986Z,42.43
2019-02-05T21:57:23.428Z,41.23
2019-02-05T21:59:59.683Z,38.83
2019-02-05T22:02:29.394Z,43.93
2019-02-05T22:04:59.050Z,44.10
2019-02-05T22:08:13.274Z,44.30
2019-02-05T22:10:38.772Z,44.73
2019-02-05T22:13:08.609Z,50.03
2019-02-05T22:15:38.470Z,40.93
2019-02-05T22:18:08.002Z,44.27
2019-02-05T22:24:22.610Z,39.70
2019-02-05T22:26:52.273Z,39.00
2019-02-05T22:29:22.018Z,40.00
2019-02-05T22:31:51.656Z,36.47
2019-02-05T22:34:21.992Z,33.03
2019-02-05T22:36:51.702Z,34.33
2019-02-05T22:39:21.226Z,41.57
2019-02-05T22:41:50.927Z,33.90
